sensor_id;sensor_type;location;lat;lon;timestamp;pressure;altitude;pressure_sealevel;temperature;humidity
55994;BME280;67425;52.126;20.638;2023-02-21T00:02:43;57427.03;;;-144.78;71.10
55994;BME280;67425;52.126;20.638;2023-02-21T00:05:28;57393.81;;;-144.78;70.48
55994;BME280;67425;52.126;20.638;2023-02-21T00:08:12;57402.13;;;-144.78;69.85
55994;BME280;67425;52.126;20.638;2023-02-21T00:10:56;57414.59;;;-144.78;70.78
55994;BME280;67425;52.126;20.638;2023-02-21T00:13:40;57397.97;;;-144.78;72.27
55994;BME280;67425;52.126;20.638;2023-02-21T00:16:23;57381.34;;;-144.78;72.10
55994;BME280;67425;52.126;20.638;2023-02-21T00:19:07;57400.03;;;-144.78;71.09
55994;BME280;67425;52.126;20.638;2023-02-21T00:21:51;57389.66;;;-144.78;71.76
55994;BME280;67425;52.126;20.638;2023-02-21T00:24:35;57431.19;;;-144.78;73.68
55994;BME280;67425;52.126;20.638;2023-02-21T00:27:19;57418.72;;;-144.78;72.76
55994;BME280;67425;52.126;20.638;2023-02-21T00:30:03;57406.28;;;-144.78;72.88
55994;BME280;67425;52.126;20.638;2023-02-21T00:32:48;57435.34;;;-144.78;71.47
55994;BME280;67425;52.126;20.638;2023-02-21T00:35:31;57410.44;;;-144.78;70.08
55994;BME280;67425;52.126;20.638;2023-02-21T00:38:15;57410.44;;;-144.78;70.08
55994;BME280;67425;52.126;20.638;2023-02-21T00:40:59;57424.97;;;-144.78;71.03
55994;BME280;67425;52.126;20.638;2023-02-21T00:43:43;57414.59;;;-144.78;69.82
55994;BME280;67425;52.126;20.638;2023-02-21T00:46:27;57412.50;;;-144.78;70.34
55994;BME280;67425;52.126;20.638;2023-02-21T00:49:11;57408.34;;;-144.78;69.15
55994;BME280;67425;52.126;20.638;2023-02-21T00:51:55;57395.88;;;-144.78;69.49
55994;BME280;67425;52.126;20.638;2023-02-21T00:54:39;57422.88;;;-144.78;69.51
55994;BME280;67425;52.126;20.638;2023-02-21T00:57:23;57406.28;;;-144.78;68.43
55994;BME280;67425;52.126;20.638;2023-02-21T01:00:15;57422.88;;;-144.78;70.02
55994;BME280;67425;52.126;20.638;2023-02-21T01:02:58;57397.97;;;-144.78;68.28
55994;BME280;67425;52.126;20.638;2023-02-21T01:05:42;57427.03;;;-144.78;70.00
55994;BME280;67425;52.126;20.638;2023-02-21T01:08:26;57393.81;;;-144.78;68.34
55994;BME280;67425;52.126;20.638;2023-02-21T01:11:19;57406.28;;;-144.78;67.84
55994;BME280;67425;52.126;20.638;2023-02-21T01:14:03;57422.88;;;-144.78;68.03
55994;BME280;67425;52.126;20.638;2023-02-21T01:16:47;57410.44;;;-144.78;67.86
55994;BME280;67425;52.126;20.638;2023-02-21T01:19:31;57404.19;;;-144.78;68.45
55994;BME280;67425;52.126;20.638;2023-02-21T01:22:15;57414.59;;;-144.78;68.99
55994;BME280;67425;52.126;20.638;2023-02-21T01:25:00;57422.88;;;-144.78;70.28
55994;BME280;67425;52.126;20.638;2023-02-21T01:27:43;57424.97;;;-144.78;69.99
55994;BME280;67425;52.126;20.638;2023-02-21T01:30:27;57406.28;;;-144.78;68.84
55994;BME280;67425;52.126;20.638;2023-02-21T01:33:11;57389.66;;;-144.78;69.66
55994;BME280;67425;52.126;20.638;2023-02-21T01:35:55;57416.66;;;-144.78;71.94
55994;BME280;67425;52.126;20.638;2023-02-21T01:38:39;57435.34;;;-144.78;72.86
55994;BME280;67425;52.126;20.638;2023-02-21T01:41:23;57441.59;;;-144.78;72.47
55994;BME280;67425;52.126;20.638;2023-02-21T01:47:11;57445.72;;;-144.78;72.47
55994;BME280;67425;52.126;20.638;2023-02-21T01:49:55;57439.50;;;-144.78;70.96
55994;BME280;67425;52.126;20.638;2023-02-21T01:52:39;57422.88;;;-144.78;69.96
55994;BME280;67425;52.126;20.638;2023-02-21T01:55:23;57418.72;;;-144.78;68.60
55994;BME280;67425;52.126;20.638;2023-02-21T01:58:07;57447.81;;;-144.78;68.35
55994;BME280;67425;52.126;20.638;2023-02-21T02:00:51;57433.28;;;-144.78;68.52
55994;BME280;67425;52.126;20.638;2023-02-21T02:03:36;57406.28;;;-144.78;68.14
55994;BME280;67425;52.126;20.638;2023-02-21T02:06:21;57412.50;;;-144.78;67.15
55994;BME280;67425;52.126;20.638;2023-02-21T02:09:12;57439.50;;;-144.78;68.37
55994;BME280;67425;52.126;20.638;2023-02-21T02:12:07;57443.66;;;-144.78;68.28
55994;BME280;67425;52.126;20.638;2023-02-21T02:23:38;57454.03;;;-144.78;69.83
55994;BME280;67425;52.126;20.638;2023-02-21T02:34:42;57422.88;;;-144.78;68.82
55994;BME280;67425;52.126;20.638;2023-02-21T02:43:15;57447.81;;;-144.78;69.24
55994;BME280;67425;52.126;20.638;2023-02-21T02:48:35;57451.97;;;-144.78;68.41
55994;BME280;67425;52.126;20.638;2023-02-21T02:51:07;57431.19;;;-144.78;67.27
55994;BME280;67425;52.126;20.638;2023-02-21T02:53:32;57433.28;;;-144.78;67.87
55994;BME280;67425;52.126;20.638;2023-02-21T02:56:05;57451.97;;;-144.78;67.66
55994;BME280;67425;52.126;20.638;2023-02-21T02:58:46;57437.44;;;-144.78;68.14
55994;BME280;67425;52.126;20.638;2023-02-21T03:11:29;57460.28;;;-144.78;68.37
55994;BME280;67425;52.126;20.638;2023-02-21T03:14:13;57462.34;;;-144.78;66.76
55994;BME280;67425;52.126;20.638;2023-02-21T03:16:47;57464.41;;;-144.78;66.86
55994;BME280;67425;52.126;20.638;2023-02-21T03:19:30;57429.13;;;-144.78;67.41
55994;BME280;67425;52.126;20.638;2023-02-21T03:22:04;57443.66;;;-144.78;66.70
55994;BME280;67425;52.126;20.638;2023-02-21T03:24:32;57435.34;;;-144.78;66.42
55994;BME280;67425;52.126;20.638;2023-02-21T03:27:02;57429.13;;;-144.78;65.69
55994;BME280;67425;52.126;20.638;2023-02-21T03:29:28;57449.88;;;-144.78;66.81
55994;BME280;67425;52.126;20.638;2023-02-21T03:31:59;57449.88;;;-144.78;67.15
55994;BME280;67425;52.126;20.638;2023-02-21T03:34:43;57427.03;;;-144.78;65.18
55994;BME280;67425;52.126;20.638;2023-02-21T03:37:18;57431.19;;;-144.78;65.45
55994;BME280;67425;52.126;20.638;2023-02-21T03:39:43;57420.81;;;-144.78;65.50
55994;BME280;67425;52.126;20.638;2023-02-21T03:42:09;57418.72;;;-144.78;64.78
55994;BME280;67425;52.126;20.638;2023-02-21T03:44:34;57472.72;;;-144.78;66.85
55994;BME280;67425;52.126;20.638;2023-02-21T03:46:59;57427.03;;;-144.78;65.91
55994;BME280;67425;52.126;20.638;2023-02-21T03:49:25;57414.59;;;-144.78;64.92
55994;BME280;67425;52.126;20.638;2023-02-21T03:51:50;57447.81;;;-144.78;65.43
55994;BME280;67425;52.126;20.638;2023-02-21T03:54:15;57422.88;;;-144.78;65.39
55994;BME280;67425;52.126;20.638;2023-02-21T03:56:41;57439.50;;;-144.78;65.71
55994;BME280;67425;52.126;20.638;2023-02-21T03:59:06;57454.03;;;-144.78;65.74
55994;BME280;67425;52.126;20.638;2023-02-21T04:01:31;57451.97;;;-144.78;65.90
55994;BME280;67425;52.126;20.638;2023-02-21T04:03:57;57441.59;;;-144.78;66.09
55994;BME280;67425;52.126;20.638;2023-02-21T04:06:22;57458.19;;;-144.78;65.63
55994;BME280;67425;52.126;20.638;2023-02-21T04:08:47;57454.03;;;-144.78;65.60
55994;BME280;67425;52.126;20.638;2023-02-21T04:11:17;57449.88;;;-144.78;63.90
55994;BME280;67425;52.126;20.638;2023-02-21T04:13:42;57460.28;;;-144.78;63.68
55994;BME280;67425;52.126;20.638;2023-02-21T04:16:08;57493.50;;;-144.78;65.27
55994;BME280;67425;52.126;20.638;2023-02-21T04:18:33;57445.72;;;-144.78;64.54
55994;BME280;67425;52.126;20.638;2023-02-21T04:20:58;57456.13;;;-144.78;65.10
55994;BME280;67425;52.126;20.638;2023-02-21T04:23:23;57439.50;;;-144.78;64.67
55994;BME280;67425;52.126;20.638;2023-02-21T04:25:49;57458.19;;;-144.78;64.74
55994;BME280;67425;52.126;20.638;2023-02-21T04:28:15;57474.81;;;-144.78;64.59
55994;BME280;67425;52.126;20.638;2023-02-21T04:30:40;57472.72;;;-144.78;65.32
55994;BME280;67425;52.126;20.638;2023-02-21T04:33:05;57464.41;;;-144.78;64.01
55994;BME280;67425;52.126;20.638;2023-02-21T04:35:31;57501.81;;;-144.78;64.71
55994;BME280;67425;52.126;20.638;2023-02-21T04:37:56;57460.28;;;-144.78;63.89
55994;BME280;67425;52.126;20.638;2023-02-21T04:40:21;57447.81;;;-144.78;63.85
55994;BME280;67425;52.126;20.638;2023-02-21T04:42:46;57451.97;;;-144.78;63.45
55994;BME280;67425;52.126;20.638;2023-02-21T04:45:12;57449.88;;;-144.78;63.03
55994;BME280;67425;52.126;20.638;2023-02-21T04:47:37;57449.88;;;-144.78;63.05
55994;BME280;67425;52.126;20.638;2023-02-21T04:50:03;57462.34;;;-144.78;64.46
55994;BME280;67425;52.126;20.638;2023-02-21T04:52:29;57505.97;;;-144.78;64.07
55994;BME280;67425;52.126;20.638;2023-02-21T04:54:54;57468.56;;;-144.78;63.64
55994;BME280;67425;52.126;20.638;2023-02-21T04:57:20;57458.19;;;-144.78;63.93
55994;BME280;67425;52.126;20.638;2023-02-21T04:59:45;57460.28;;;-144.78;63.72
55994;BME280;67425;52.126;20.638;2023-02-21T05:02:10;57462.34;;;-144.78;63.90
55994;BME280;67425;52.126;20.638;2023-02-21T05:04:36;57468.56;;;-144.78;63.60
55994;BME280;67425;52.126;20.638;2023-02-21T05:07:02;57472.72;;;-144.78;63.19
55994;BME280;67425;52.126;20.638;2023-02-21T05:09:28;57476.88;;;-144.78;62.97
55994;BME280;67425;52.126;20.638;2023-02-21T05:11:53;57462.34;;;-144.78;62.82
55994;BME280;67425;52.126;20.638;2023-02-21T05:14:18;57491.41;;;-144.78;63.19
55994;BME280;67425;52.126;20.638;2023-02-21T05:16:44;57468.56;;;-144.78;62.77
55994;BME280;67425;52.126;20.638;2023-02-21T05:19:09;57462.34;;;-144.78;62.49
55994;BME280;67425;52.126;20.638;2023-02-21T05:21:35;57466.50;;;-144.78;62.91
55994;BME280;67425;52.126;20.638;2023-02-21T05:24:06;57493.50;;;-144.78;63.73
55994;BME280;67425;52.126;20.638;2023-02-21T05:26:34;57478.97;;;-144.78;63.00
55994;BME280;67425;52.126;20.638;2023-02-21T05:29:00;57491.41;;;-144.78;63.07
55994;BME280;67425;52.126;20.638;2023-02-21T05:31:26;57493.50;;;-144.78;61.72
55994;BME280;67425;52.126;20.638;2023-02-21T05:33:52;57451.97;;;-144.78;61.33
55994;BME280;67425;52.126;20.638;2023-02-21T05:36:18;57501.81;;;-144.78;62.87
55994;BME280;67425;52.126;20.638;2023-02-21T05:38:46;57464.41;;;-144.78;62.29
55994;BME280;67425;52.126;20.638;2023-02-21T05:41:13;57489.34;;;-144.78;62.68
55994;BME280;67425;52.126;20.638;2023-02-21T05:43:38;57518.41;;;-144.78;63.65
55994;BME280;67425;52.126;20.638;2023-02-21T05:46:04;57516.34;;;-144.78;63.80
55994;BME280;67425;52.126;20.638;2023-02-21T05:48:29;57493.50;;;-144.78;62.99
55994;BME280;67425;52.126;20.638;2023-02-21T05:50:54;57497.66;;;-144.78;61.94
55994;BME280;67425;52.126;20.638;2023-02-21T05:53:20;57514.25;;;-144.78;63.17
55994;BME280;67425;52.126;20.638;2023-02-21T05:55:45;57497.66;;;-144.78;62.38
55994;BME280;67425;52.126;20.638;2023-02-21T05:58:10;57468.56;;;-144.78;61.95
55994;BME280;67425;52.126;20.638;2023-02-21T06:00:35;57499.72;;;-144.78;62.05
55994;BME280;67425;52.126;20.638;2023-02-21T06:03:01;57505.97;;;-144.78;62.55
55994;BME280;67425;52.126;20.638;2023-02-21T06:05:26;57497.66;;;-144.78;62.44
55994;BME280;67425;52.126;20.638;2023-02-21T06:07:51;57497.66;;;-144.78;61.92
55994;BME280;67425;52.126;20.638;2023-02-21T06:10:17;57499.72;;;-144.78;61.92
55994;BME280;67425;52.126;20.638;2023-02-21T06:12:43;57483.13;;;-144.78;61.83
55994;BME280;67425;52.126;20.638;2023-02-21T06:15:08;57483.13;;;-144.78;62.09
55994;BME280;67425;52.126;20.638;2023-02-21T06:17:37;57495.56;;;-144.78;62.14
55994;BME280;67425;52.126;20.638;2023-02-21T06:20:03;57483.13;;;-144.78;61.91
55994;BME280;67425;52.126;20.638;2023-02-21T06:22:29;57487.28;;;-144.78;62.18
55994;BME280;67425;52.126;20.638;2023-02-21T06:24:54;57464.41;;;-144.78;62.51
55994;BME280;67425;52.126;20.638;2023-02-21T06:27:20;57505.97;;;-144.78;63.34
55994;BME280;67425;52.126;20.638;2023-02-21T06:29:45;57524.66;;;-144.78;63.11
55994;BME280;67425;52.126;20.638;2023-02-21T06:32:10;57485.19;;;-144.78;63.04
55994;BME280;67425;52.126;20.638;2023-02-21T06:34:36;57491.41;;;-144.78;63.02
55994;BME280;67425;52.126;20.638;2023-02-21T06:37:01;57460.28;;;-144.78;63.00
55994;BME280;67425;52.126;20.638;2023-02-21T06:39:26;57472.72;;;-144.78;63.25
55994;BME280;67425;52.126;20.638;2023-02-21T06:41:52;57460.28;;;-144.78;63.09
55994;BME280;67425;52.126;20.638;2023-02-21T06:44:17;57460.28;;;-144.78;62.85
55994;BME280;67425;52.126;20.638;2023-02-21T06:46:43;57495.56;;;-144.78;63.99
55994;BME280;67425;52.126;20.638;2023-02-21T06:49:08;57491.41;;;-144.78;64.15
55994;BME280;67425;52.126;20.638;2023-02-21T06:51:35;57476.88;;;-144.78;63.99
55994;BME280;67425;52.126;20.638;2023-02-21T06:54:00;57456.13;;;-144.78;63.09
55994;BME280;67425;52.126;20.638;2023-02-21T06:56:26;57495.56;;;-144.78;63.98
55994;BME280;67425;52.126;20.638;2023-02-21T06:58:51;57456.13;;;-144.78;63.81
55994;BME280;67425;52.126;20.638;2023-02-21T07:01:17;57478.97;;;-144.78;63.09
55994;BME280;67425;52.126;20.638;2023-02-21T07:03:43;57487.28;;;-144.78;62.54
55994;BME280;67425;52.126;20.638;2023-02-21T07:06:09;57481.03;;;-144.78;62.71
55994;BME280;67425;52.126;20.638;2023-02-21T07:08:34;57495.56;;;-144.78;63.10
55994;BME280;67425;52.126;20.638;2023-02-21T07:11:00;57493.50;;;-144.78;62.84
55994;BME280;67425;52.126;20.638;2023-02-21T07:13:25;57478.97;;;-144.78;63.01
55994;BME280;67425;52.126;20.638;2023-02-21T07:15:51;57501.81;;;-144.78;62.86
55994;BME280;67425;52.126;20.638;2023-02-21T07:18:16;57493.50;;;-144.78;62.25
55994;BME280;67425;52.126;20.638;2023-02-21T07:20:41;57472.72;;;-144.78;61.95
55994;BME280;67425;52.126;20.638;2023-02-21T07:23:07;57487.28;;;-144.78;62.51
55994;BME280;67425;52.126;20.638;2023-02-21T07:25:32;57481.03;;;-144.78;63.19
55994;BME280;67425;52.126;20.638;2023-02-21T07:27:57;57481.03;;;-144.78;63.36
55994;BME280;67425;52.126;20.638;2023-02-21T07:30:23;57503.88;;;-144.78;66.21
55994;BME280;67425;52.126;20.638;2023-02-21T07:32:48;57489.34;;;-144.78;65.49
55994;BME280;67425;52.126;20.638;2023-02-21T07:35:13;57464.41;;;-144.78;64.98
55994;BME280;67425;52.126;20.638;2023-02-21T07:37:39;57495.56;;;-144.78;65.41
55994;BME280;67425;52.126;20.638;2023-02-21T07:40:05;57472.72;;;-144.78;64.99
55994;BME280;67425;52.126;20.638;2023-02-21T07:42:33;57470.66;;;-144.78;65.50
55994;BME280;67425;52.126;20.638;2023-02-21T07:44:59;57487.28;;;-144.78;64.82
55994;BME280;67425;52.126;20.638;2023-02-21T07:47:25;57468.56;;;-144.78;64.79
55994;BME280;67425;52.126;20.638;2023-02-21T07:49:51;57478.97;;;-144.78;65.15
55994;BME280;67425;52.126;20.638;2023-02-21T07:52:19;57476.88;;;-144.78;64.36
55994;BME280;67425;52.126;20.638;2023-02-21T07:54:44;57458.19;;;-144.78;65.49
55994;BME280;67425;52.126;20.638;2023-02-21T07:57:09;57476.88;;;-144.78;64.82
55994;BME280;67425;52.126;20.638;2023-02-21T07:59:35;57489.34;;;-144.78;65.43
55994;BME280;67425;52.126;20.638;2023-02-21T08:02:00;57474.81;;;-144.78;65.18
55994;BME280;67425;52.126;20.638;2023-02-21T08:04:26;57472.72;;;-144.78;65.67
55994;BME280;67425;52.126;20.638;2023-02-21T08:06:57;57497.66;;;-144.78;65.73
55994;BME280;67425;52.126;20.638;2023-02-21T08:09:23;57464.41;;;-144.78;65.43
55994;BME280;67425;52.126;20.638;2023-02-21T08:11:48;57462.34;;;-144.78;65.94
55994;BME280;67425;52.126;20.638;2023-02-21T08:14:13;57508.03;;;-144.78;66.71
55994;BME280;67425;52.126;20.638;2023-02-21T08:16:39;57483.13;;;-144.78;66.21
55994;BME280;67425;52.126;20.638;2023-02-21T08:19:04;57483.13;;;-144.78;65.82
55994;BME280;67425;52.126;20.638;2023-02-21T08:21:29;57485.19;;;-144.78;65.37
55994;BME280;67425;52.126;20.638;2023-02-21T08:23:55;57460.28;;;-144.78;64.81
55994;BME280;67425;52.126;20.638;2023-02-21T08:26:21;57464.41;;;-144.78;65.97
55994;BME280;67425;52.126;20.638;2023-02-21T08:28:46;57489.34;;;-144.78;67.74
55994;BME280;67425;52.126;20.638;2023-02-21T08:31:12;57501.81;;;-144.78;68.05
55994;BME280;67425;52.126;20.638;2023-02-21T08:33:38;57489.34;;;-144.78;68.18
55994;BME280;67425;52.126;20.638;2023-02-21T08:36:04;57499.72;;;-144.78;68.58
55994;BME280;67425;52.126;20.638;2023-02-21T08:38:29;57493.50;;;-144.78;68.48
55994;BME280;67425;52.126;20.638;2023-02-21T08:40:55;57497.66;;;-144.78;68.78
55994;BME280;67425;52.126;20.638;2023-02-21T08:43:22;57493.50;;;-144.78;68.34
55994;BME280;67425;52.126;20.638;2023-02-21T08:45:47;57472.72;;;-144.78;68.18
55994;BME280;67425;52.126;20.638;2023-02-21T08:48:13;57495.56;;;-144.78;68.93
55994;BME280;67425;52.126;20.638;2023-02-21T08:50:38;57485.19;;;-144.78;67.28
55994;BME280;67425;52.126;20.638;2023-02-21T08:53:03;57462.34;;;-144.78;66.76
55994;BME280;67425;52.126;20.638;2023-02-21T08:55:29;57468.56;;;-144.78;65.72
55994;BME280;67425;52.126;20.638;2023-02-21T08:57:54;57447.81;;;-144.78;65.83
55994;BME280;67425;52.126;20.638;2023-02-21T09:00:21;57439.50;;;-144.78;64.87
55994;BME280;67425;52.126;20.638;2023-02-21T09:02:51;57449.88;;;-144.78;65.57
55994;BME280;67425;52.126;20.638;2023-02-21T09:05:22;57454.03;;;-144.78;65.34
55994;BME280;67425;52.126;20.638;2023-02-21T09:07:49;57443.66;;;-144.78;64.98
55994;BME280;67425;52.126;20.638;2023-02-21T09:10:16;57451.97;;;-144.78;66.72
55994;BME280;67425;52.126;20.638;2023-02-21T09:12:42;57476.88;;;-144.78;66.41
55994;BME280;67425;52.126;20.638;2023-02-21T09:15:07;57470.66;;;-144.78;65.88
55994;BME280;67425;52.126;20.638;2023-02-21T09:17:34;57451.97;;;-144.78;65.15
55994;BME280;67425;52.126;20.638;2023-02-21T09:20:09;57441.59;;;-144.78;64.16
55994;BME280;67425;52.126;20.638;2023-02-21T09:22:35;57420.81;;;-144.78;64.03
55994;BME280;67425;52.126;20.638;2023-02-21T09:25:01;57445.72;;;-144.78;64.67
55994;BME280;67425;52.126;20.638;2023-02-21T09:27:26;57431.19;;;-144.78;63.91
55994;BME280;67425;52.126;20.638;2023-02-21T09:30:06;57460.28;;;-144.78;64.37
55994;BME280;67425;52.126;20.638;2023-02-21T09:32:32;57427.03;;;-144.78;63.78
55994;BME280;67425;52.126;20.638;2023-02-21T09:34:58;57422.88;;;-144.78;62.53
55994;BME280;67425;52.126;20.638;2023-02-21T09:37:23;57462.34;;;-144.78;63.36
55994;BME280;67425;52.126;20.638;2023-02-21T09:39:49;57435.34;;;-144.78;64.03
55994;BME280;67425;52.126;20.638;2023-02-21T09:42:16;57433.28;;;-144.78;63.67
55994;BME280;67425;52.126;20.638;2023-02-21T09:44:43;57431.19;;;-144.78;63.04
55994;BME280;67425;52.126;20.638;2023-02-21T09:47:13;57416.66;;;-144.78;62.98
55994;BME280;67425;52.126;20.638;2023-02-21T09:49:41;57435.34;;;-144.78;62.40
55994;BME280;67425;52.126;20.638;2023-02-21T09:52:28;57404.19;;;-144.78;61.33
55994;BME280;67425;52.126;20.638;2023-02-21T09:54:57;57416.66;;;-144.78;63.59
55994;BME280;67425;52.126;20.638;2023-02-21T09:57:24;57400.03;;;-144.78;62.54
55994;BME280;67425;52.126;20.638;2023-02-21T09:59:49;57420.81;;;-144.78;63.12
55994;BME280;67425;52.126;20.638;2023-02-21T10:08:06;57449.88;;;-144.78;64.02
55994;BME280;67425;52.126;20.638;2023-02-21T10:11:01;57418.72;;;-144.78;63.64
55994;BME280;67425;52.126;20.638;2023-02-21T10:13:45;57416.66;;;-144.78;63.06
55994;BME280;67425;52.126;20.638;2023-02-21T10:19:07;57443.66;;;-144.78;66.12
55994;BME280;67425;52.126;20.638;2023-02-21T10:21:40;57460.28;;;-144.78;65.72
55994;BME280;67425;52.126;20.638;2023-02-21T10:24:14;57447.81;;;-144.78;67.46
55994;BME280;67425;52.126;20.638;2023-02-21T10:26:46;57441.59;;;-144.78;67.79
55994;BME280;67425;52.126;20.638;2023-02-21T10:29:25;57418.72;;;-144.78;67.38
55994;BME280;67425;52.126;20.638;2023-02-21T10:31:54;57437.44;;;-144.78;66.82
55994;BME280;67425;52.126;20.638;2023-02-21T10:34:24;57395.88;;;-144.78;65.43
55994;BME280;67425;52.126;20.638;2023-02-21T10:36:50;57414.59;;;-144.78;64.85
55994;BME280;67425;52.126;20.638;2023-02-21T10:39:20;57406.28;;;-144.78;64.18
55994;BME280;67425;52.126;20.638;2023-02-21T10:41:47;57474.81;;;-144.78;68.08
55994;BME280;67425;52.126;20.638;2023-02-21T10:44:24;57456.13;;;-144.78;68.17
55994;BME280;67425;52.126;20.638;2023-02-21T10:52:16;57429.13;;;-144.78;67.46
55994;BME280;67425;52.126;20.638;2023-02-21T10:54:59;57447.81;;;-144.78;65.51
55994;BME280;67425;52.126;20.638;2023-02-21T10:57:25;57429.13;;;-144.78;65.34
55994;BME280;67425;52.126;20.638;2023-02-21T10:59:51;57472.72;;;-144.78;66.26
55994;BME280;67425;52.126;20.638;2023-02-21T11:02:37;57433.28;;;-144.78;64.97
55994;BME280;67425;52.126;20.638;2023-02-21T11:05:16;57431.19;;;-144.78;65.68
55994;BME280;67425;52.126;20.638;2023-02-21T11:08:03;57458.19;;;-144.78;65.19
55994;BME280;67425;52.126;20.638;2023-02-21T11:10:37;57431.19;;;-144.78;65.60
55994;BME280;67425;52.126;20.638;2023-02-21T11:13:22;57441.59;;;-144.78;65.06
55994;BME280;67425;52.126;20.638;2023-02-21T11:15:48;57418.72;;;-144.78;64.21
55994;BME280;67425;52.126;20.638;2023-02-21T11:18:21;57435.34;;;-144.78;64.41
55994;BME280;67425;52.126;20.638;2023-02-21T11:20:48;57441.59;;;-144.78;65.51
55994;BME280;67425;52.126;20.638;2023-02-21T11:26:12;57449.88;;;-144.78;64.20
55994;BME280;67425;52.126;20.638;2023-02-21T11:28:44;57470.66;;;-144.78;65.01
55994;BME280;67425;52.126;20.638;2023-02-21T11:31:19;57447.81;;;-144.78;64.88
55994;BME280;67425;52.126;20.638;2023-02-21T11:33:54;57456.13;;;-144.78;65.37
55994;BME280;67425;52.126;20.638;2023-02-21T11:36:26;57451.97;;;-144.78;65.70
55994;BME280;67425;52.126;20.638;2023-02-21T11:41:49;57458.19;;;-144.78;65.29
55994;BME280;67425;52.126;20.638;2023-02-21T11:44:40;57418.72;;;-144.78;64.70
55994;BME280;67425;52.126;20.638;2023-02-21T11:52:46;57422.88;;;-144.78;65.11
55994;BME280;67425;52.126;20.638;2023-02-21T11:55:17;57439.50;;;-144.78;64.20
55994;BME280;67425;52.126;20.638;2023-02-21T12:01:10;57441.59;;;-144.78;63.93
55994;BME280;67425;52.126;20.638;2023-02-21T12:04:04;57427.03;;;-144.78;64.13
55994;BME280;67425;52.126;20.638;2023-02-21T12:12:47;57427.03;;;-144.78;64.92
55994;BME280;67425;52.126;20.638;2023-02-21T12:15:20;57424.97;;;-144.78;64.39
55994;BME280;67425;52.126;20.638;2023-02-21T12:18:09;57406.28;;;-144.78;64.16
55994;BME280;67425;52.126;20.638;2023-02-21T12:20:53;57418.72;;;-144.78;64.92
55994;BME280;67425;52.126;20.638;2023-02-21T12:40:18;57393.81;;;-144.78;63.59
55994;BME280;67425;52.126;20.638;2023-02-21T12:45:39;57375.13;;;-144.78;63.00
55994;BME280;67425;52.126;20.638;2023-02-21T12:50:39;57445.72;;;-144.78;63.50
55994;BME280;67425;52.126;20.638;2023-02-21T12:53:16;57435.34;;;-144.78;65.33
55994;BME280;67425;52.126;20.638;2023-02-21T12:55:48;57422.88;;;-144.78;64.42
55994;BME280;67425;52.126;20.638;2023-02-21T12:58:22;57422.88;;;-144.78;65.52
55994;BME280;67425;52.126;20.638;2023-02-21T13:03:29;57439.50;;;-144.78;65.49
55994;BME280;67425;52.126;20.638;2023-02-21T13:06:15;57412.50;;;-144.78;64.10
55994;BME280;67425;52.126;20.638;2023-02-21T13:14:16;57429.13;;;-144.78;65.32
55994;BME280;67425;52.126;20.638;2023-02-21T13:16:43;57431.19;;;-144.78;65.44
55994;BME280;67425;52.126;20.638;2023-02-21T13:19:11;57443.66;;;-144.78;68.45
55994;BME280;67425;52.126;20.638;2023-02-21T13:24:15;57435.34;;;-144.78;68.48
55994;BME280;67425;52.126;20.638;2023-02-21T13:30:26;57451.97;;;-144.78;66.53
55994;BME280;67425;52.126;20.638;2023-02-21T13:32:57;57433.28;;;-144.78;66.81
55994;BME280;67425;52.126;20.638;2023-02-21T13:37:54;57445.72;;;-144.78;66.67
55994;BME280;67425;52.126;20.638;2023-02-21T13:40:31;57435.34;;;-144.78;65.82
55994;BME280;67425;52.126;20.638;2023-02-21T13:43:03;57454.03;;;-144.78;67.13
55994;BME280;67425;52.126;20.638;2023-02-21T13:45:30;57431.19;;;-144.78;65.92
55994;BME280;67425;52.126;20.638;2023-02-21T13:55:34;57445.72;;;-144.78;65.09
55994;BME280;67425;52.126;20.638;2023-02-21T14:13:56;57431.19;;;-144.78;64.21
55994;BME280;67425;52.126;20.638;2023-02-21T14:16:24;57439.50;;;-144.78;64.26
55994;BME280;67425;52.126;20.638;2023-02-21T14:21:26;57412.50;;;-144.78;62.18
55994;BME280;67425;52.126;20.638;2023-02-21T14:31:52;57443.66;;;-144.78;64.24
55994;BME280;67425;52.126;20.638;2023-02-21T14:34:31;57439.50;;;-144.78;63.11
55994;BME280;67425;52.126;20.638;2023-02-21T14:37:01;57451.97;;;-144.78;62.14
55994;BME280;67425;52.126;20.638;2023-02-21T14:39:34;57420.81;;;-144.78;62.17
55994;BME280;67425;52.126;20.638;2023-02-21T14:50:59;57427.03;;;-144.78;61.63
55994;BME280;67425;52.126;20.638;2023-02-21T14:56:49;57431.19;;;-144.78;62.82
55994;BME280;67425;52.126;20.638;2023-02-21T15:07:37;57427.03;;;-144.78;64.18
55994;BME280;67425;52.126;20.638;2023-02-21T15:10:05;57402.13;;;-144.78;62.34
55994;BME280;67425;52.126;20.638;2023-02-21T15:12:37;57422.88;;;-144.78;64.42
55994;BME280;67425;52.126;20.638;2023-02-21T15:15:03;57431.19;;;-144.78;63.87
55994;BME280;67425;52.126;20.638;2023-02-21T15:17:29;57404.19;;;-144.78;62.69
55994;BME280;67425;52.126;20.638;2023-02-21T15:20:12;57402.13;;;-144.78;62.25
55994;BME280;67425;52.126;20.638;2023-02-21T15:22:38;57416.66;;;-144.78;62.57
55994;BME280;67425;52.126;20.638;2023-02-21T15:27:32;57439.50;;;-144.78;63.51
55994;BME280;67425;52.126;20.638;2023-02-21T15:30:12;57429.13;;;-144.78;63.47
55994;BME280;67425;52.126;20.638;2023-02-21T15:32:38;57414.59;;;-144.78;62.41
55994;BME280;67425;52.126;20.638;2023-02-21T15:35:05;57427.03;;;-144.78;63.05
55994;BME280;67425;52.126;20.638;2023-02-21T15:37:37;57443.66;;;-144.78;63.10
55994;BME280;67425;52.126;20.638;2023-02-21T15:40:11;57402.13;;;-144.78;61.53
55994;BME280;67425;52.126;20.638;2023-02-21T15:42:40;57414.59;;;-144.78;61.76